PWSweather.com
Personal Weather Stations
Station Observations
DW6359
Southwest Cambria, Cambria, WI 53923

Southwest CambriaCambria, WI 53923

Lat: 43.541194, Lon: -89.11275

Elevation: 945

Station Type: Davis Vantage Pro2

http://home.centurytel.net/weathercambria/wxcambria.html

High Low Average
Temperature 22.4°F-5.3°C 5.0°F-15.0°C 14.7°F-9.6°C
Dew Point 16.1°F-8.8°C 2.0°F-16.7°C 10.7°F-11.8°C
Winds 8.0 mph 12.9 kmh Calm Calm 3.0 mph WNW4.8 kmh WNW
Wind Gusts 11.0 mph17.7 kmh -- 1.0 mph1.6 kmh
Humidity 97% 75% 84%
Pressure 30.67 in1038.6 mb 30.47 in1031.8 mb -
Precipitation 0.00 in0.0 mm - -
Hour Temp Dew Point Humidity Winds Wind Gusts Pressure Precip Precip Rate Daily Precip Total
12:00 AM 17.7°F-7.9°C 14.8°F-9.6°C 88% 5.0 mph N8.0 kmh N -- 30.46 in1031.5 mb 0.00 in0.0 mm 0.00 in0.0 mm 0.00 in0.0 mm
12:05 AM 17.6°F-8.0°C 14.7°F-9.6°C 88% 4.0 mph N6.4 kmh N -- 30.47 in1031.8 mb 0.00 in0.0 mm 0.00 in0.0 mm 0.00 in0.0 mm
12:10 AM 17.6°F-8.0°C 14.7°F-9.6°C 88% 6.0 mph NNW9.7 kmh NNW -- 30.47 in1031.8 mb 0.00 in0.0 mm 0.00 in0.0 mm 0.00 in0.0 mm
12:15 AM 17.7°F-7.9°C 14.8°F-9.6°C 88% 3.0 mph N4.8 kmh N -- 30.47 in1031.8 mb 0.00 in0.0 mm 0.00 in0.0 mm 0.00 in0.0 mm
12:20 AM 17.7°F-7.9°C 14.8°F-9.6°C 88% 4.0 mph N6.4 kmh N -- 30.47 in1031.8 mb 0.00 in0.0 mm 0.00 in0.0 mm 0.00 in0.0 mm
12:25 AM 17.7°F-7.9°C 14.8°F-9.6°C 88% 5.0 mph NW8.0 kmh NW -- 30.47 in1031.8 mb 0.00 in0.0 mm 0.00 in0.0 mm 0.00 in0.0 mm
12:30 AM 17.7°F-7.9°C 14.8°F-9.6°C 88% 4.0 mph N6.4 kmh N 10.0 mph16.1 kmh 30.47 in1031.8 mb 0.00 in0.0 mm 0.00 in0.0 mm 0.00 in0.0 mm
12:35 AM 17.7°F-7.9°C 14.8°F-9.6°C 88% 7.0 mph N11.3 kmh N 10.0 mph16.1 kmh 30.47 in1031.8 mb 0.00 in0.0 mm 0.00 in0.0 mm 0.00 in0.0 mm
12:40 AM 17.7°F-7.9°C 14.8°F-9.6°C 88% 8.0 mph N12.9 kmh N -- 30.47 in1031.8 mb 0.00 in0.0 mm 0.00 in0.0 mm 0.00 in0.0 mm
12:45 AM 17.7°F-7.9°C 14.8°F-9.6°C 88% 7.0 mph NNE11.3 kmh NNE -- 30.48 in1032.2 mb 0.00 in0.0 mm 0.00 in0.0 mm 0.00 in0.0 mm
12:50 AM 17.6°F-8.0°C 14.7°F-9.6°C 88% 8.0 mph N12.9 kmh N -- 30.48 in1032.2 mb 0.00 in0.0 mm 0.00 in0.0 mm 0.00 in0.0 mm
12:55 AM 17.6°F-8.0°C 14.7°F-9.6°C 88% 4.0 mph N6.4 kmh N -- 30.47 in1031.8 mb 0.00 in0.0 mm 0.00 in0.0 mm 0.00 in0.0 mm
01:00 AM 17.5°F-8.1°C 14.6°F-9.7°C 88% 6.0 mph NW9.7 kmh NW -- 30.47 in1031.8 mb 0.00 in0.0 mm 0.00 in0.0 mm 0.00 in0.0 mm
01:05 AM 17.5°F-8.1°C 14.6°F-9.7°C 88% 6.0 mph N9.7 kmh N -- 30.47 in1031.8 mb 0.00 in0.0 mm 0.00 in0.0 mm 0.00 in0.0 mm
01:10 AM 17.4°F-8.1°C 14.2°F-9.9°C 87% 7.0 mph NNE11.3 kmh NNE -- 30.48 in1032.2 mb 0.00 in0.0 mm 0.00 in0.0 mm 0.00 in0.0 mm
01:15 AM 17.3°F-8.2°C 14.1°F-9.9°C 87% 2.0 mph N3.2 kmh N -- 30.48 in1032.2 mb 0.00 in0.0 mm 0.00 in0.0 mm 0.00 in0.0 mm
01:20 AM 17.1°F-8.3°C 13.9°F-10.1°C 87% 4.0 mph NNW6.4 kmh NNW 8.0 mph12.9 kmh 30.48 in1032.2 mb 0.00 in0.0 mm 0.00 in0.0 mm 0.00 in0.0 mm
01:25 AM 17.0°F-8.3°C 13.8°F-10.1°C 87% 3.0 mph NW4.8 kmh NW 8.0 mph12.9 kmh 30.48 in1032.2 mb 0.00 in0.0 mm 0.00 in0.0 mm 0.00 in0.0 mm
01:30 AM 16.9°F-8.4°C 13.7°F-10.2°C 87% 5.0 mph NNW8.0 kmh NNW -- 30.48 in1032.2 mb 0.00 in0.0 mm 0.00 in0.0 mm 0.00 in0.0 mm
01:35 AM 16.8°F-8.4°C 13.6°F-10.2°C 87% 7.0 mph N11.3 kmh N -- 30.48 in1032.2 mb 0.00 in0.0 mm 0.00 in0.0 mm 0.00 in0.0 mm
01:40 AM 16.7°F-8.5°C 13.5°F-10.3°C 87% 5.0 mph NW8.0 kmh NW -- 30.48 in1032.2 mb 0.00 in0.0 mm 0.00 in0.0 mm 0.00 in0.0 mm
01:45 AM 16.6°F-8.6°C 13.4°F-10.3°C 87% 3.0 mph NNW4.8 kmh NNW -- 30.48 in1032.2 mb 0.00 in0.0 mm 0.00 in0.0 mm 0.00 in0.0 mm
01:50 AM 16.5°F-8.6°C 13.3°F-10.4°C 87% 7.0 mph NNW11.3 kmh NNW -- 30.48 in1032.2 mb 0.00 in0.0 mm 0.00 in0.0 mm 0.00 in0.0 mm
01:55 AM 16.4°F-8.7°C 13.2°F-10.4°C 87% 3.0 mph NW4.8 kmh NW -- 30.48 in1032.2 mb 0.00 in0.0 mm 0.00 in0.0 mm 0.00 in0.0 mm
02:00 AM 16.3°F-8.7°C 13.1°F-10.5°C 87% 5.0 mph NNW8.0 kmh NNW -- 30.48 in1032.2 mb 0.00 in0.0 mm 0.00 in0.0 mm 0.00 in0.0 mm
02:05 AM 16.1°F-8.8°C 12.9°F-10.6°C 87% 7.0 mph NW11.3 kmh NW -- 30.49 in1032.5 mb 0.00 in0.0 mm 0.00 in0.0 mm 0.00 in0.0 mm
02:10 AM 16.0°F-8.9°C 12.8°F-10.7°C 87% 5.0 mph NW8.0 kmh NW 9.0 mph14.5 kmh 30.49 in1032.5 mb 0.00 in0.0 mm 0.00 in0.0 mm 0.00 in0.0 mm
02:15 AM 16.0°F-8.9°C 12.8°F-10.7°C 87% 4.0 mph N6.4 kmh N 9.0 mph14.5 kmh 30.49 in1032.5 mb 0.00 in0.0 mm 0.00 in0.0 mm 0.00 in0.0 mm
02:20 AM 15.9°F-8.9°C 12.7°F-10.7°C 87% 5.0 mph NNW8.0 kmh NNW -- 30.49 in1032.5 mb 0.00 in0.0 mm 0.00 in0.0 mm 0.00 in0.0 mm
02:25 AM 16.0°F-8.9°C 12.8°F-10.7°C 87% 6.0 mph N9.7 kmh N -- 30.50 in1032.8 mb 0.00 in0.0 mm 0.00 in0.0 mm 0.00 in0.0 mm
02:30 AM 16.0°F-8.9°C 12.8°F-10.7°C 87% 4.0 mph NW6.4 kmh NW -- 30.50 in1032.8 mb 0.00 in0.0 mm 0.00 in0.0 mm 0.00 in0.0 mm
02:35 AM 16.0°F-8.9°C 12.8°F-10.7°C 87% 5.0 mph NW8.0 kmh NW -- 30.50 in1032.8 mb 0.00 in0.0 mm 0.00 in0.0 mm 0.00 in0.0 mm
02:40 AM 15.9°F-8.9°C 12.7°F-10.7°C 87% 8.0 mph NW12.9 kmh NW -- 30.50 in1032.8 mb 0.00 in0.0 mm 0.00 in0.0 mm 0.00 in0.0 mm
02:45 AM 15.8°F-9.0°C 12.6°F-10.8°C 87% 6.0 mph NW9.7 kmh NW -- 30.50 in1032.8 mb 0.00 in0.0 mm 0.00 in0.0 mm 0.00 in0.0 mm
02:50 AM 15.7°F-9.1°C 12.5°F-10.8°C 87% 6.0 mph NW9.7 kmh NW -- 30.50 in1032.8 mb 0.00 in0.0 mm 0.00 in0.0 mm 0.00 in0.0 mm
02:55 AM 15.7°F-9.1°C 12.5°F-10.8°C 87% 6.0 mph NW9.7 kmh NW -- 30.51 in1033.2 mb 0.00 in0.0 mm 0.00 in0.0 mm 0.00 in0.0 mm
03:00 AM 15.6°F-9.1°C 12.4°F-10.9°C 87% 4.0 mph NNW6.4 kmh NNW 11.0 mph17.7 kmh 30.51 in1033.2 mb 0.00 in0.0 mm 0.00 in0.0 mm 0.00 in0.0 mm
03:05 AM 15.5°F-9.2°C 12.3°F-10.9°C 87% 8.0 mph NW12.9 kmh NW 11.0 mph17.7 kmh 30.51 in1033.2 mb 0.00 in0.0 mm 0.00 in0.0 mm 0.00 in0.0 mm
03:10 AM 15.5°F-9.2°C 12.3°F-10.9°C 87% 3.0 mph NW4.8 kmh NW -- 30.51 in1033.2 mb 0.00 in0.0 mm 0.00 in0.0 mm 0.00 in0.0 mm
03:15 AM 15.3°F-9.3°C 12.1°F-11.1°C 87% 7.0 mph NW11.3 kmh NW -- 30.51 in1033.2 mb 0.00 in0.0 mm 0.00 in0.0 mm 0.00 in0.0 mm
03:20 AM 15.2°F-9.3°C 12.0°F-11.1°C 87% 5.0 mph NNW8.0 kmh NNW -- 30.51 in1033.2 mb 0.00 in0.0 mm 0.00 in0.0 mm 0.00 in0.0 mm
03:25 AM 15.1°F-9.4°C 11.9°F-11.2°C 87% 8.0 mph NW12.9 kmh NW -- 30.51 in1033.2 mb 0.00 in0.0 mm 0.00 in0.0 mm 0.00 in0.0 mm
03:30 AM 15.0°F-9.4°C 11.8°F-11.2°C 87% 4.0 mph NNW6.4 kmh NNW -- 30.51 in1033.2 mb 0.00 in0.0 mm 0.00 in0.0 mm 0.00 in0.0 mm
03:35 AM 14.9°F-9.5°C 11.7°F-11.3°C 87% 8.0 mph NW12.9 kmh NW -- 30.52 in1033.5 mb 0.00 in0.0 mm 0.00 in0.0 mm 0.00 in0.0 mm
03:40 AM 14.8°F-9.6°C 11.6°F-11.3°C 87% 4.0 mph NNW6.4 kmh NNW -- 30.52 in1033.5 mb 0.00 in0.0 mm 0.00 in0.0 mm 0.00 in0.0 mm
03:45 AM 14.8°F-9.6°C 11.6°F-11.3°C 87% 5.0 mph NW8.0 kmh NW -- 30.52 in1033.5 mb 0.00 in0.0 mm 0.00 in0.0 mm 0.00 in0.0 mm
03:50 AM 14.7°F-9.6°C 11.5°F-11.4°C 87% 7.0 mph NW11.3 kmh NW 11.0 mph17.7 kmh 30.52 in1033.5 mb 0.00 in0.0 mm 0.00 in0.0 mm 0.00 in0.0 mm
03:55 AM 14.7°F-9.6°C 11.5°F-11.4°C 87% 5.0 mph NW8.0 kmh NW 11.0 mph17.7 kmh 30.53 in1033.9 mb 0.00 in0.0 mm 0.00 in0.0 mm 0.00 in0.0 mm
04:00 AM 14.6°F-9.7°C 11.4°F-11.4°C 87% 7.0 mph NW11.3 kmh NW -- 30.53 in1033.9 mb 0.00 in0.0 mm 0.00 in0.0 mm 0.00 in0.0 mm
04:05 AM 14.6°F-9.7°C 11.4°F-11.4°C 87% 4.0 mph NW6.4 kmh NW -- 30.53 in1033.9 mb 0.00 in0.0 mm 0.00 in0.0 mm 0.00 in0.0 mm
04:10 AM 14.6°F-9.7°C 11.4°F-11.4°C 87% 5.0 mph NW8.0 kmh NW -- 30.53 in1033.9 mb 0.00 in0.0 mm 0.00 in0.0 mm 0.00 in0.0 mm
04:15 AM 14.5°F-9.7°C 11.4°F-11.4°C 87% 5.0 mph NNW8.0 kmh NNW -- 30.53 in1033.9 mb 0.00 in0.0 mm 0.00 in0.0 mm 0.00 in0.0 mm
04:20 AM 14.5°F-9.7°C 11.4°F-11.4°C 87% 3.0 mph N4.8 kmh N -- 30.53 in1033.9 mb 0.00 in0.0 mm 0.00 in0.0 mm 0.00 in0.0 mm
04:25 AM 14.4°F-9.8°C 11.3°F-11.5°C 87% 3.0 mph NW4.8 kmh NW -- 30.53 in1033.9 mb 0.00 in0.0 mm 0.00 in0.0 mm 0.00 in0.0 mm
04:30 AM 14.4°F-9.8°C 11.3°F-11.5°C 87% 5.0 mph NW8.0 kmh NW -- 30.53 in1033.9 mb 0.00 in0.0 mm 0.00 in0.0 mm 0.00 in0.0 mm
04:35 AM 14.2°F-9.9°C 11.1°F-11.6°C 87% 8.0 mph NW12.9 kmh NW -- 30.53 in1033.9 mb 0.00 in0.0 mm 0.00 in0.0 mm 0.00 in0.0 mm
04:40 AM 14.1°F-9.9°C 11.0°F-11.7°C 87% 2.0 mph NW3.2 kmh NW 8.0 mph12.9 kmh 30.53 in1033.9 mb 0.00 in0.0 mm 0.00 in0.0 mm 0.00 in0.0 mm
04:45 AM 14.1°F-9.9°C 11.0°F-11.7°C 87% 4.0 mph NNW6.4 kmh NNW 8.0 mph12.9 kmh 30.54 in1034.2 mb 0.00 in0.0 mm 0.00 in0.0 mm 0.00 in0.0 mm
04:50 AM 13.9°F-10.1°C 10.8°F-11.8°C 87% 5.0 mph NW8.0 kmh NW -- 30.54 in1034.2 mb 0.00 in0.0 mm 0.00 in0.0 mm 0.00 in0.0 mm
04:55 AM 13.8°F-10.1°C 10.7°F-11.8°C 87% 5.0 mph NW8.0 kmh NW -- 30.54 in1034.2 mb 0.00 in0.0 mm 0.00 in0.0 mm 0.00 in0.0 mm
05:00 AM 13.6°F-10.2°C 10.5°F-11.9°C 87% 6.0 mph NW9.7 kmh NW -- 30.54 in1034.2 mb 0.00 in0.0 mm 0.00 in0.0 mm 0.00 in0.0 mm
05:05 AM 13.4°F-10.3°C 10.3°F-12.1°C 87% 6.0 mph NW9.7 kmh NW -- 30.54 in1034.2 mb 0.00 in0.0 mm 0.00 in0.0 mm 0.00 in0.0 mm
05:10 AM 13.2°F-10.4°C 10.1°F-12.2°C 87% 5.0 mph NW8.0 kmh NW -- 30.54 in1034.2 mb 0.00 in0.0 mm 0.00 in0.0 mm 0.00 in0.0 mm
05:15 AM 13.0°F-10.6°C 9.9°F-12.3°C 87% 6.0 mph NW9.7 kmh NW -- 30.55 in1034.5 mb 0.00 in0.0 mm 0.00 in0.0 mm 0.00 in0.0 mm
05:20 AM 12.8°F-10.7°C 9.7°F-12.4°C 87% 6.0 mph NW9.7 kmh NW -- 30.55 in1034.5 mb 0.00 in0.0 mm 0.00 in0.0 mm 0.00 in0.0 mm
05:25 AM 12.6°F-10.8°C 9.5°F-12.5°C 87% 5.0 mph NW8.0 kmh NW -- 30.55 in1034.5 mb 0.00 in0.0 mm 0.00 in0.0 mm 0.00 in0.0 mm
05:30 AM 12.5°F-10.8°C 9.4°F-12.6°C 87% 3.0 mph NNW4.8 kmh NNW 8.0 mph12.9 kmh 30.55 in1034.5 mb 0.00 in0.0 mm 0.00 in0.0 mm 0.00 in0.0 mm
05:35 AM 12.5°F-10.8°C 9.4°F-12.6°C 87% 2.0 mph NW3.2 kmh NW 8.0 mph12.9 kmh 30.55 in1034.5 mb 0.00 in0.0 mm 0.00 in0.0 mm 0.00 in0.0 mm
05:40 AM 12.5°F-10.8°C 9.4°F-12.6°C 87% 4.0 mph NW6.4 kmh NW -- 30.56 in1034.9 mb 0.00 in0.0 mm 0.00 in0.0 mm 0.00 in0.0 mm
05:45 AM 12.5°F-10.8°C 9.4°F-12.6°C 87% 3.0 mph W4.8 kmh W -- 30.56 in1034.9 mb 0.00 in0.0 mm 0.00 in0.0 mm 0.00 in0.0 mm
05:50 AM 12.5°F-10.8°C 9.4°F-12.6°C 87% 2.0 mph W3.2 kmh W -- 30.56 in1034.9 mb 0.00 in0.0 mm 0.00 in0.0 mm 0.00 in0.0 mm
05:55 AM 12.5°F-10.8°C 9.4°F-12.6°C 87% 2.0 mph NW3.2 kmh NW -- 30.56 in1034.9 mb 0.00 in0.0 mm 0.00 in0.0 mm 0.00 in0.0 mm
06:00 AM 12.5°F-10.8°C 9.4°F-12.6°C 87% 6.0 mph WNW9.7 kmh WNW -- 30.56 in1034.9 mb 0.00 in0.0 mm 0.00 in0.0 mm 0.00 in0.0 mm
06:05 AM 12.5°F-10.8°C 9.4°F-12.6°C 87% 1.0 mph WNW1.6 kmh WNW -- 30.56 in1034.9 mb 0.00 in0.0 mm 0.00 in0.0 mm 0.00 in0.0 mm
06:10 AM 12.5°F-10.8°C 9.4°F-12.6°C 87% 6.0 mph WNW9.7 kmh WNW -- 30.56 in1034.9 mb 0.00 in0.0 mm 0.00 in0.0 mm 0.00 in0.0 mm
06:15 AM 12.5°F-10.8°C 9.4°F-12.6°C 87% 2.0 mph WNW3.2 kmh WNW -- 30.57 in1035.2 mb 0.00 in0.0 mm 0.00 in0.0 mm 0.00 in0.0 mm
06:20 AM 12.5°F-10.8°C 9.4°F-12.6°C 87% 2.0 mph WNW3.2 kmh WNW 6.0 mph9.7 kmh 30.57 in1035.2 mb 0.00 in0.0 mm 0.00 in0.0 mm 0.00 in0.0 mm
06:25 AM 12.5°F-10.8°C 9.4°F-12.6°C 87% 1.0 mph WNW1.6 kmh WNW 6.0 mph9.7 kmh 30.57 in1035.2 mb 0.00 in0.0 mm 0.00 in0.0 mm 0.00 in0.0 mm
06:30 AM 12.6°F-10.8°C 9.5°F-12.5°C 87% 2.0 mph WNW3.2 kmh WNW -- 30.57 in1035.2 mb 0.00 in0.0 mm 0.00 in0.0 mm 0.00 in0.0 mm
06:35 AM 12.6°F-10.8°C 9.5°F-12.5°C 87% 3.0 mph W4.8 kmh W -- 30.57 in1035.2 mb 0.00 in0.0 mm 0.00 in0.0 mm 0.00 in0.0 mm
06:40 AM 12.5°F-10.8°C 9.4°F-12.6°C 87% 4.0 mph WNW6.4 kmh WNW -- 30.58 in1035.6 mb 0.00 in0.0 mm 0.00 in0.0 mm 0.00 in0.0 mm
06:45 AM 12.5°F-10.8°C 9.4°F-12.6°C 87% 4.0 mph NW6.4 kmh NW -- 30.58 in1035.6 mb 0.00 in0.0 mm 0.00 in0.0 mm 0.00 in0.0 mm
06:50 AM 12.5°F-10.8°C 9.4°F-12.6°C 87% 6.0 mph WNW9.7 kmh WNW -- 30.58 in1035.6 mb 0.00 in0.0 mm 0.00 in0.0 mm 0.00 in0.0 mm
06:55 AM 12.6°F-10.8°C 9.5°F-12.5°C 87% 5.0 mph NW8.0 kmh NW -- 30.59 in1035.9 mb 0.00 in0.0 mm 0.00 in0.0 mm 0.00 in0.0 mm
07:00 AM 12.7°F-10.7°C 9.6°F-12.4°C 87% 2.0 mph WNW3.2 kmh WNW -- 30.59 in1035.9 mb 0.00 in0.0 mm 0.00 in0.0 mm 0.00 in0.0 mm
07:05 AM 12.7°F-10.7°C 9.6°F-12.4°C 87% 6.0 mph WNW9.7 kmh WNW -- 30.59 in1035.9 mb 0.00 in0.0 mm 0.00 in0.0 mm 0.00 in0.0 mm
07:10 AM 12.8°F-10.7°C 9.7°F-12.4°C 87% 3.0 mph NW4.8 kmh NW 7.0 mph11.3 kmh 30.59 in1035.9 mb 0.00 in0.0 mm 0.00 in0.0 mm 0.00 in0.0 mm
07:15 AM 12.8°F-10.7°C 9.7°F-12.4°C 87% 3.0 mph W4.8 kmh W 7.0 mph11.3 kmh 30.59 in1035.9 mb 0.00 in0.0 mm 0.00 in0.0 mm 0.00 in0.0 mm
07:20 AM 12.8°F-10.7°C 9.7°F-12.4°C 87% 5.0 mph NW8.0 kmh NW -- 30.59 in1035.9 mb 0.00 in0.0 mm 0.00 in0.0 mm 0.00 in0.0 mm
07:25 AM 12.9°F-10.6°C 9.8°F-12.3°C 87% 4.0 mph NW6.4 kmh NW -- 30.59 in1035.9 mb 0.00 in0.0 mm 0.00 in0.0 mm 0.00 in0.0 mm
07:30 AM 13.0°F-10.6°C 9.9°F-12.3°C 87% 4.0 mph WNW6.4 kmh WNW -- 30.59 in1035.9 mb 0.00 in0.0 mm 0.00 in0.0 mm 0.00 in0.0 mm
07:35 AM 13.1°F-10.5°C 10.0°F-12.2°C 87% 5.0 mph WNW8.0 kmh WNW -- 30.59 in1035.9 mb 0.00 in0.0 mm 0.00 in0.0 mm 0.00 in0.0 mm
07:40 AM 13.2°F-10.4°C 10.1°F-12.2°C 87% 3.0 mph NW4.8 kmh NW -- 30.59 in1035.9 mb 0.00 in0.0 mm 0.00 in0.0 mm 0.00 in0.0 mm
07:45 AM 13.3°F-10.4°C 10.2°F-12.1°C 87% 2.0 mph WNW3.2 kmh WNW -- 30.59 in1035.9 mb 0.00 in0.0 mm 0.00 in0.0 mm 0.00 in0.0 mm
07:50 AM 13.3°F-10.4°C 10.2°F-12.1°C 87% Calm Calm -- 30.59 in1035.9 mb 0.00 in0.0 mm 0.00 in0.0 mm 0.00 in0.0 mm
07:55 AM 13.3°F-10.4°C 10.2°F-12.1°C 87% 5.0 mph NW8.0 kmh NW -- 30.60 in1036.2 mb 0.00 in0.0 mm 0.00 in0.0 mm 0.00 in0.0 mm
08:00 AM 13.3°F-10.4°C 10.2°F-12.1°C 87% 2.0 mph NW3.2 kmh NW 6.0 mph9.7 kmh 30.59 in1035.9 mb 0.00 in0.0 mm 0.00 in0.0 mm 0.00 in0.0 mm
08:05 AM 13.2°F-10.4°C 10.1°F-12.2°C 87% 3.0 mph NW4.8 kmh NW 6.0 mph9.7 kmh 30.60 in1036.2 mb 0.00 in0.0 mm 0.00 in0.0 mm 0.00 in0.0 mm
08:10 AM 13.0°F-10.6°C 9.9°F-12.3°C 87% 3.0 mph NW4.8 kmh NW -- 30.60 in1036.2 mb 0.00 in0.0 mm 0.00 in0.0 mm 0.00 in0.0 mm
08:15 AM 12.9°F-10.6°C 9.8°F-12.3°C 87% 3.0 mph NW4.8 kmh NW -- 30.60 in1036.2 mb 0.00 in0.0 mm 0.00 in0.0 mm 0.00 in0.0 mm
08:20 AM 12.8°F-10.7°C 9.7°F-12.4°C 87% 3.0 mph NW4.8 kmh NW -- 30.60 in1036.2 mb 0.00 in0.0 mm 0.00 in0.0 mm 0.00 in0.0 mm
08:25 AM 12.7°F-10.7°C 9.6°F-12.4°C 87% 2.0 mph NW3.2 kmh NW -- 30.61 in1036.6 mb 0.00 in0.0 mm 0.00 in0.0 mm 0.00 in0.0 mm
08:30 AM 12.5°F-10.8°C 9.4°F-12.6°C 87% 2.0 mph NW3.2 kmh NW -- 30.61 in1036.6 mb 0.00 in0.0 mm 0.00 in0.0 mm 0.00 in0.0 mm
08:35 AM 12.2°F-11.0°C 9.1°F-12.7°C 87% 2.0 mph NW3.2 kmh NW -- 30.61 in1036.6 mb 0.00 in0.0 mm 0.00 in0.0 mm 0.00 in0.0 mm
08:40 AM 12.0°F-11.1°C 8.9°F-12.8°C 87% 3.0 mph NW4.8 kmh NW -- 30.61 in1036.6 mb 0.00 in0.0 mm 0.00 in0.0 mm 0.00 in0.0 mm
08:45 AM 11.7°F-11.3°C 8.6°F-13.0°C 87% 4.0 mph NW6.4 kmh NW -- 30.61 in1036.6 mb 0.00 in0.0 mm 0.00 in0.0 mm 0.00 in0.0 mm
08:50 AM 11.6°F-11.3°C 8.5°F-13.1°C 87% 3.0 mph NW4.8 kmh NW 6.0 mph9.7 kmh 30.62 in1036.9 mb 0.00 in0.0 mm 0.00 in0.0 mm 0.00 in0.0 mm
08:55 AM 11.5°F-11.4°C 8.4°F-13.1°C 87% Calm Calm 6.0 mph9.7 kmh 30.62 in1036.9 mb 0.00 in0.0 mm 0.00 in0.0 mm 0.00 in0.0 mm
09:00 AM 11.3°F-11.5°C 8.2°F-13.2°C 87% 3.0 mph NW4.8 kmh NW -- 30.62 in1036.9 mb 0.00 in0.0 mm 0.00 in0.0 mm 0.00 in0.0 mm
09:05 AM 11.2°F-11.6°C 8.1°F-13.3°C 87% Calm Calm -- 30.62 in1036.9 mb 0.00 in0.0 mm 0.00 in0.0 mm 0.00 in0.0 mm
09:10 AM 10.9°F-11.7°C 7.8°F-13.4°C 87% 2.0 mph NW3.2 kmh NW -- 30.62 in1036.9 mb 0.00 in0.0 mm 0.00 in0.0 mm 0.00 in0.0 mm
09:15 AM 10.8°F-11.8°C 7.7°F-13.5°C 87% 2.0 mph WNW3.2 kmh WNW -- 30.63 in1037.3 mb 0.00 in0.0 mm 0.00 in0.0 mm 0.00 in0.0 mm
09:20 AM 10.8°F-11.8°C 7.7°F-13.5°C 87% Calm Calm -- 30.62 in1036.9 mb 0.00 in0.0 mm 0.00 in0.0 mm 0.00 in0.0 mm
09:25 AM 10.7°F-11.8°C 7.6°F-13.6°C 87% 2.0 mph NW3.2 kmh NW -- 30.63 in1037.3 mb 0.00 in0.0 mm 0.00 in0.0 mm 0.00 in0.0 mm
09:30 AM 10.8°F-11.8°C 7.7°F-13.5°C 87% 2.0 mph NW3.2 kmh NW -- 30.63 in1037.3 mb 0.00 in0.0 mm 0.00 in0.0 mm 0.00 in0.0 mm
09:35 AM 10.9°F-11.7°C 7.8°F-13.4°C 87% 2.0 mph W3.2 kmh W -- 30.64 in1037.6 mb 0.00 in0.0 mm 0.00 in0.0 mm 0.00 in0.0 mm
09:40 AM 10.9°F-11.7°C 7.8°F-13.4°C 87% 3.0 mph NW4.8 kmh NW 8.0 mph12.9 kmh 30.64 in1037.6 mb 0.00 in0.0 mm 0.00 in0.0 mm 0.00 in0.0 mm
09:45 AM 11.0°F-11.7°C 7.9°F-13.4°C 87% 2.0 mph W3.2 kmh W 8.0 mph12.9 kmh 30.64 in1037.6 mb 0.00 in0.0 mm 0.00 in0.0 mm 0.00 in0.0 mm
09:50 AM 11.0°F-11.7°C 7.9°F-13.4°C 87% 2.0 mph W3.2 kmh W -- 30.64 in1037.6 mb 0.00 in0.0 mm 0.00 in0.0 mm 0.00 in0.0 mm
09:55 AM 11.2°F-11.6°C 8.1°F-13.3°C 87% 4.0 mph W6.4 kmh W -- 30.64 in1037.6 mb 0.00 in0.0 mm 0.00 in0.0 mm 0.00 in0.0 mm
10:00 AM 11.3°F-11.5°C 8.2°F-13.2°C 87% 5.0 mph W8.0 kmh W -- 30.65 in1037.9 mb 0.00 in0.0 mm 0.00 in0.0 mm 0.00 in0.0 mm
10:05 AM 11.5°F-11.4°C 8.4°F-13.1°C 87% 3.0 mph W4.8 kmh W -- 30.65 in1037.9 mb 0.00 in0.0 mm 0.00 in0.0 mm 0.00 in0.0 mm
10:10 AM 11.6°F-11.3°C 8.5°F-13.1°C 87% 4.0 mph W6.4 kmh W -- 30.65 in1037.9 mb 0.00 in0.0 mm 0.00 in0.0 mm 0.00 in0.0 mm
10:15 AM 11.7°F-11.3°C 8.3°F-13.2°C 86% 3.0 mph W4.8 kmh W -- 30.65 in1037.9 mb 0.00 in0.0 mm 0.00 in0.0 mm 0.00 in0.0 mm
10:20 AM 11.9°F-11.2°C 8.5°F-13.1°C 86% 4.0 mph NW6.4 kmh NW -- 30.65 in1037.9 mb 0.00 in0.0 mm 0.00 in0.0 mm 0.00 in0.0 mm
10:25 AM 12.1°F-11.1°C 8.7°F-12.9°C 86% 2.0 mph W3.2 kmh W -- 30.65 in1037.9 mb 0.00 in0.0 mm 0.00 in0.0 mm 0.00 in0.0 mm
10:30 AM 12.3°F-10.9°C 8.9°F-12.8°C 86% 2.0 mph W3.2 kmh W 5.0 mph8.0 kmh 30.65 in1037.9 mb 0.00 in0.0 mm 0.00 in0.0 mm 0.00 in0.0 mm
10:35 AM 12.6°F-10.8°C 9.2°F-12.7°C 86% 3.0 mph W4.8 kmh W 5.0 mph8.0 kmh 30.66 in1038.3 mb 0.00 in0.0 mm 0.00 in0.0 mm 0.00 in0.0 mm
10:40 AM 12.8°F-10.7°C 9.4°F-12.6°C 86% 3.0 mph W4.8 kmh W -- 30.66 in1038.3 mb 0.00 in0.0 mm 0.00 in0.0 mm 0.00 in0.0 mm
10:45 AM 13.1°F-10.5°C 9.7°F-12.4°C 86% Calm Calm -- 30.66 in1038.3 mb 0.00 in0.0 mm 0.00 in0.0 mm 0.00 in0.0 mm
10:50 AM 13.5°F-10.3°C 10.1°F-12.2°C 86% 4.0 mph W6.4 kmh W -- 30.66 in1038.3 mb 0.00 in0.0 mm 0.00 in0.0 mm 0.00 in0.0 mm
10:55 AM 13.6°F-10.2°C 9.9°F-12.3°C 85% 2.0 mph WNW3.2 kmh WNW -- 30.66 in1038.3 mb 0.00 in0.0 mm 0.00 in0.0 mm 0.00 in0.0 mm
11:00 AM 13.7°F-10.2°C 10.0°F-12.2°C 85% 4.0 mph W6.4 kmh W -- 30.66 in1038.3 mb 0.00 in0.0 mm 0.00 in0.0 mm 0.00 in0.0 mm
11:05 AM 13.9°F-10.1°C 10.2°F-12.1°C 85% 7.0 mph NW11.3 kmh NW -- 30.67 in1038.6 mb 0.00 in0.0 mm 0.00 in0.0 mm 0.00 in0.0 mm
11:10 AM 14.1°F-9.9°C 10.2°F-12.1°C 84% 3.0 mph WSW4.8 kmh WSW -- 30.66 in1038.3 mb 0.00 in0.0 mm 0.00 in0.0 mm 0.00 in0.0 mm
11:15 AM 14.4°F-9.8°C 10.5°F-11.9°C 84% 5.0 mph WNW8.0 kmh WNW -- 30.66 in1038.3 mb 0.00 in0.0 mm 0.00 in0.0 mm 0.00 in0.0 mm
11:20 AM 14.4°F-9.8°C 10.5°F-11.9°C 84% 3.0 mph WSW4.8 kmh WSW 7.0 mph11.3 kmh 30.66 in1038.3 mb 0.00 in0.0 mm 0.00 in0.0 mm 0.00 in0.0 mm
11:25 AM 14.7°F-9.6°C 10.8°F-11.8°C 84% 3.0 mph WNW4.8 kmh WNW 7.0 mph11.3 kmh 30.66 in1038.3 mb 0.00 in0.0 mm 0.00 in0.0 mm 0.00 in0.0 mm
11:30 AM 14.8°F-9.6°C 10.6°F-11.9°C 83% 6.0 mph W9.7 kmh W -- 30.66 in1038.3 mb 0.00 in0.0 mm 0.00 in0.0 mm 0.00 in0.0 mm
11:35 AM 14.9°F-9.5°C 10.7°F-11.8°C 83% 3.0 mph W4.8 kmh W -- 30.66 in1038.3 mb 0.00 in0.0 mm 0.00 in0.0 mm 0.00 in0.0 mm
11:40 AM 14.9°F-9.5°C 10.4°F-12.0°C 82% 5.0 mph WNW8.0 kmh WNW -- 30.66 in1038.3 mb 0.00 in0.0 mm 0.00 in0.0 mm 0.00 in0.0 mm
11:45 AM 15.1°F-9.4°C 10.6°F-11.9°C 82% 3.0 mph W4.8 kmh W -- 30.66 in1038.3 mb 0.00 in0.0 mm 0.00 in0.0 mm 0.00 in0.0 mm
11:50 AM 15.5°F-9.2°C 11.3°F-11.5°C 83% 4.0 mph NW6.4 kmh NW -- 30.65 in1037.9 mb 0.00 in0.0 mm 0.00 in0.0 mm 0.00 in0.0 mm
11:55 AM 15.6°F-9.1°C 11.1°F-11.6°C 82% 3.0 mph WNW4.8 kmh WNW -- 30.65 in1037.9 mb 0.00 in0.0 mm 0.00 in0.0 mm 0.00 in0.0 mm
12:00 PM 15.8°F-9.0°C 11.3°F-11.5°C 82% 4.0 mph W6.4 kmh W -- 30.65 in1037.9 mb 0.00 in0.0 mm 0.00 in0.0 mm 0.00 in0.0 mm
12:05 PM 16.0°F-8.9°C 11.5°F-11.4°C 82% 7.0 mph NW11.3 kmh NW -- 30.65 in1037.9 mb 0.00 in0.0 mm 0.00 in0.0 mm 0.00 in0.0 mm
12:10 PM 16.2°F-8.8°C 11.7°F-11.3°C 82% 5.0 mph W8.0 kmh W 8.0 mph12.9 kmh 30.66 in1038.3 mb 0.00 in0.0 mm 0.00 in0.0 mm 0.00 in0.0 mm
12:15 PM 16.4°F-8.7°C 11.6°F-11.3°C 81% 5.0 mph NW8.0 kmh NW 8.0 mph12.9 kmh 30.65 in1037.9 mb 0.00 in0.0 mm 0.00 in0.0 mm 0.00 in0.0 mm
12:20 PM 16.7°F-8.5°C 12.2°F-11.0°C 82% 4.0 mph NW6.4 kmh NW -- 30.65 in1037.9 mb 0.00 in0.0 mm 0.00 in0.0 mm 0.00 in0.0 mm
12:25 PM 17.0°F-8.3°C 12.2°F-11.0°C 81% 7.0 mph WNW11.3 kmh WNW -- 30.65 in1037.9 mb 0.00 in0.0 mm 0.00 in0.0 mm 0.00 in0.0 mm
12:30 PM 17.3°F-8.2°C 12.8°F-10.7°C 82% 5.0 mph NW8.0 kmh NW -- 30.64 in1037.6 mb 0.00 in0.0 mm 0.00 in0.0 mm 0.00 in0.0 mm
12:35 PM 17.6°F-8.0°C 12.8°F-10.7°C 81% 6.0 mph W9.7 kmh W -- 30.64 in1037.6 mb 0.00 in0.0 mm 0.00 in0.0 mm 0.00 in0.0 mm
12:40 PM 17.5°F-8.1°C 12.7°F-10.7°C 81% 7.0 mph NW11.3 kmh NW -- 30.64 in1037.6 mb 0.00 in0.0 mm 0.00 in0.0 mm 0.00 in0.0 mm
12:45 PM 17.6°F-8.0°C 12.8°F-10.7°C 81% 4.0 mph W6.4 kmh W -- 30.64 in1037.6 mb 0.00 in0.0 mm 0.00 in0.0 mm 0.00 in0.0 mm
12:50 PM 17.5°F-8.1°C 12.4°F-10.9°C 80% 6.0 mph NNW9.7 kmh NNW -- 30.64 in1037.6 mb 0.00 in0.0 mm 0.00 in0.0 mm 0.00 in0.0 mm
12:55 PM 17.5°F-8.1°C 12.4°F-10.9°C 80% 6.0 mph W9.7 kmh W -- 30.63 in1037.3 mb 0.00 in0.0 mm 0.00 in0.0 mm 0.00 in0.0 mm
01:00 PM 17.6°F-8.0°C 12.8°F-10.7°C 81% 7.0 mph WNW11.3 kmh WNW 10.0 mph16.1 kmh 30.63 in1037.3 mb 0.00 in0.0 mm 0.00 in0.0 mm 0.00 in0.0 mm
01:05 PM 17.9°F-7.8°C 13.1°F-10.5°C 81% 3.0 mph W4.8 kmh W 10.0 mph16.1 kmh 30.63 in1037.3 mb 0.00 in0.0 mm 0.00 in0.0 mm 0.00 in0.0 mm
01:10 PM 17.7°F-7.9°C 12.6°F-10.8°C 80% 4.0 mph W6.4 kmh W -- 30.63 in1037.3 mb 0.00 in0.0 mm 0.00 in0.0 mm 0.00 in0.0 mm
01:15 PM 17.7°F-7.9°C 12.6°F-10.8°C 80% 5.0 mph W8.0 kmh W -- 30.63 in1037.3 mb 0.00 in0.0 mm 0.00 in0.0 mm 0.00 in0.0 mm
01:20 PM 17.9°F-7.8°C 13.1°F-10.5°C 81% 6.0 mph W9.7 kmh W -- 30.63 in1037.3 mb 0.00 in0.0 mm 0.00 in0.0 mm 0.00 in0.0 mm
01:25 PM 17.9°F-7.8°C 12.8°F-10.7°C 80% 8.0 mph W12.9 kmh W -- 30.63 in1037.3 mb 0.00 in0.0 mm 0.00 in0.0 mm 0.00 in0.0 mm
01:30 PM 18.0°F-7.8°C 12.9°F-10.6°C 80% 4.0 mph W6.4 kmh W -- 30.63 in1037.3 mb 0.00 in0.0 mm 0.00 in0.0 mm 0.00 in0.0 mm
01:35 PM 18.1°F-7.7°C 13.0°F-10.6°C 80% 7.0 mph NW11.3 kmh NW -- 30.63 in1037.3 mb 0.00 in0.0 mm 0.00 in0.0 mm 0.00 in0.0 mm
01:40 PM 18.1°F-7.7°C 13.0°F-10.6°C 80% 5.0 mph W8.0 kmh W -- 30.62 in1036.9 mb 0.00 in0.0 mm 0.00 in0.0 mm 0.00 in0.0 mm
01:45 PM 18.4°F-7.6°C 13.3°F-10.4°C 80% 6.0 mph NW9.7 kmh NW -- 30.62 in1036.9 mb 0.00 in0.0 mm 0.00 in0.0 mm 0.00 in0.0 mm
01:50 PM 18.5°F-7.5°C 13.4°F-10.3°C 80% 4.0 mph W6.4 kmh W 9.0 mph14.5 kmh 30.62 in1036.9 mb 0.00 in0.0 mm 0.00 in0.0 mm 0.00 in0.0 mm
01:55 PM 18.7°F-7.4°C 13.6°F-10.2°C 80% 3.0 mph W4.8 kmh W 9.0 mph14.5 kmh 30.62 in1036.9 mb 0.00 in0.0 mm 0.00 in0.0 mm 0.00 in0.0 mm
02:00 PM 18.8°F-7.3°C 13.7°F-10.2°C 80% 4.0 mph WNW6.4 kmh WNW -- 30.62 in1036.9 mb 0.00 in0.0 mm 0.00 in0.0 mm 0.00 in0.0 mm
02:05 PM 18.9°F-7.3°C 13.8°F-10.1°C 80% 6.0 mph WNW9.7 kmh WNW -- 30.62 in1036.9 mb 0.00 in0.0 mm 0.00 in0.0 mm 0.00 in0.0 mm
02:10 PM 19.1°F-7.2°C 14.0°F-10.0°C 80% 4.0 mph WNW6.4 kmh WNW -- 30.62 in1036.9 mb 0.00 in0.0 mm 0.00 in0.0 mm 0.00 in0.0 mm
02:15 PM 19.1°F-7.2°C 14.0°F-10.0°C 80% 5.0 mph W8.0 kmh W -- 30.62 in1036.9 mb 0.00 in0.0 mm 0.00 in0.0 mm 0.00 in0.0 mm
02:20 PM 19.4°F-7.0°C 14.3°F-9.8°C 80% 4.0 mph NW6.4 kmh NW -- 30.62 in1036.9 mb 0.00 in0.0 mm 0.00 in0.0 mm 0.00 in0.0 mm
02:25 PM 19.8°F-6.8°C 14.6°F-9.7°C 80% 3.0 mph W4.8 kmh W -- 30.62 in1036.9 mb 0.00 in0.0 mm 0.00 in0.0 mm 0.00 in0.0 mm
02:30 PM 19.9°F-6.7°C 14.5°F-9.7°C 79% 6.0 mph W9.7 kmh W -- 30.62 in1036.9 mb 0.00 in0.0 mm 0.00 in0.0 mm 0.00 in0.0 mm
02:35 PM 20.0°F-6.7°C 14.6°F-9.7°C 79% 3.0 mph W4.8 kmh W -- 30.62 in1036.9 mb 0.00 in0.0 mm 0.00 in0.0 mm 0.00 in0.0 mm
02:40 PM 20.1°F-6.6°C 14.7°F-9.6°C 79% 2.0 mph W3.2 kmh W 9.0 mph14.5 kmh 30.62 in1036.9 mb 0.00 in0.0 mm 0.00 in0.0 mm 0.00 in0.0 mm
02:45 PM 20.1°F-6.6°C 14.7°F-9.6°C 79% 4.0 mph W6.4 kmh W 9.0 mph14.5 kmh 30.62 in1036.9 mb 0.00 in0.0 mm 0.00 in0.0 mm 0.00 in0.0 mm
02:50 PM 20.4°F-6.4°C 14.9°F-9.5°C 79% 2.0 mph W3.2 kmh W -- 30.61 in1036.6 mb 0.00 in0.0 mm 0.00 in0.0 mm 0.00 in0.0 mm
02:55 PM 21.2°F-6.0°C 15.7°F-9.1°C 79% 5.0 mph W8.0 kmh W -- 30.61 in1036.6 mb 0.00 in0.0 mm 0.00 in0.0 mm 0.00 in0.0 mm
03:00 PM 21.5°F-5.8°C 15.4°F-9.2°C 77% 6.0 mph WNW9.7 kmh WNW -- 30.61 in1036.6 mb 0.00 in0.0 mm 0.00 in0.0 mm 0.00 in0.0 mm
03:05 PM 21.4°F-5.9°C 15.3°F-9.3°C 77% 7.0 mph NW11.3 kmh NW -- 30.61 in1036.6 mb 0.00 in0.0 mm 0.00 in0.0 mm 0.00 in0.0 mm
03:10 PM 21.5°F-5.8°C 15.4°F-9.2°C 77% 5.0 mph NW8.0 kmh NW -- 30.61 in1036.6 mb 0.00 in0.0 mm 0.00 in0.0 mm 0.00 in0.0 mm
03:15 PM 21.7°F-5.7°C 15.6°F-9.1°C 77% 4.0 mph NW6.4 kmh NW -- 30.61 in1036.6 mb 0.00 in0.0 mm 0.00 in0.0 mm 0.00 in0.0 mm
03:20 PM 21.8°F-5.7°C 15.7°F-9.1°C 77% 3.0 mph NW4.8 kmh NW -- 30.61 in1036.6 mb 0.00 in0.0 mm 0.00 in0.0 mm 0.00 in0.0 mm
03:25 PM 21.9°F-5.6°C 15.8°F-9.0°C 77% 6.0 mph WSW9.7 kmh WSW -- 30.61 in1036.6 mb 0.00 in0.0 mm 0.00 in0.0 mm 0.00 in0.0 mm
03:30 PM 21.8°F-5.7°C 15.4°F-9.2°C 76% 5.0 mph W8.0 kmh W 7.0 mph11.3 kmh 30.62 in1036.9 mb 0.00 in0.0 mm 0.00 in0.0 mm 0.00 in0.0 mm
03:35 PM 21.8°F-5.7°C 15.4°F-9.2°C 76% 5.0 mph WSW8.0 kmh WSW 7.0 mph11.3 kmh 30.61 in1036.6 mb 0.00 in0.0 mm 0.00 in0.0 mm 0.00 in0.0 mm
03:40 PM 21.9°F-5.6°C 15.5°F-9.2°C 76% 6.0 mph N9.7 kmh N -- 30.62 in1036.9 mb 0.00 in0.0 mm 0.00 in0.0 mm 0.00 in0.0 mm
03:45 PM 22.0°F-5.6°C 15.6°F-9.1°C 76% 6.0 mph NW9.7 kmh NW -- 30.62 in1036.9 mb 0.00 in0.0 mm 0.00 in0.0 mm 0.00 in0.0 mm
03:50 PM 22.0°F-5.6°C 15.6°F-9.1°C 76% 2.0 mph W3.2 kmh W -- 30.62 in1036.9 mb 0.00 in0.0 mm 0.00 in0.0 mm 0.00 in0.0 mm
03:55 PM 22.0°F-5.6°C 15.3°F-9.3°C 75% 6.0 mph NW9.7 kmh NW -- 30.62 in1036.9 mb 0.00 in0.0 mm 0.00 in0.0 mm 0.00 in0.0 mm
04:00 PM 21.9°F-5.6°C 15.5°F-9.2°C 76% 4.0 mph NW6.4 kmh NW -- 30.62 in1036.9 mb 0.00 in0.0 mm 0.00 in0.0 mm 0.00 in0.0 mm
04:05 PM 21.8°F-5.7°C 15.4°F-9.2°C 76% 6.0 mph WNW9.7 kmh WNW -- 30.62 in1036.9 mb 0.00 in0.0 mm 0.00 in0.0 mm 0.00 in0.0 mm
04:10 PM 21.8°F-5.7°C 15.4°F-9.2°C 76% 5.0 mph NW8.0 kmh NW -- 30.62 in1036.9 mb 0.00 in0.0 mm 0.00 in0.0 mm 0.00 in0.0 mm
04:15 PM 22.3°F-5.4°C 15.6°F-9.1°C 75% 5.0 mph NW8.0 kmh NW -- 30.62 in1036.9 mb 0.00 in0.0 mm 0.00 in0.0 mm 0.00 in0.0 mm
04:20 PM 22.4°F-5.3°C 15.7°F-9.1°C 75% 4.0 mph W6.4 kmh W 9.0 mph14.5 kmh 30.62 in1036.9 mb 0.00 in0.0 mm 0.00 in0.0 mm 0.00 in0.0 mm
04:25 PM 22.4°F-5.3°C 15.7°F-9.1°C 75% 5.0 mph W8.0 kmh W 9.0 mph14.5 kmh 30.62 in1036.9 mb 0.00 in0.0 mm 0.00 in0.0 mm 0.00 in0.0 mm
04:30 PM 22.2°F-5.4°C 15.5°F-9.2°C 75% 3.0 mph WNW4.8 kmh WNW -- 30.62 in1036.9 mb 0.00 in0.0 mm 0.00 in0.0 mm 0.00 in0.0 mm
04:35 PM 22.2°F-5.4°C 15.5°F-9.2°C 75% 4.0 mph WNW6.4 kmh WNW -- 30.62 in1036.9 mb 0.00 in0.0 mm 0.00 in0.0 mm 0.00 in0.0 mm
04:40 PM 22.2°F-5.4°C 15.5°F-9.2°C 75% 4.0 mph WNW6.4 kmh WNW -- 30.62 in1036.9 mb 0.00 in0.0 mm 0.00 in0.0 mm 0.00 in0.0 mm
04:45 PM 22.2°F-5.4°C 15.5°F-9.2°C 75% 4.0 mph NW6.4 kmh NW -- 30.63 in1037.3 mb 0.00 in0.0 mm 0.00 in0.0 mm 0.00 in0.0 mm
04:50 PM 22.0°F-5.6°C 15.3°F-9.3°C 75% 5.0 mph WNW8.0 kmh WNW -- 30.63 in1037.3 mb 0.00 in0.0 mm 0.00 in0.0 mm 0.00 in0.0 mm
04:55 PM 21.8°F-5.7°C 15.1°F-9.4°C 75% 3.0 mph N4.8 kmh N -- 30.63 in1037.3 mb 0.00 in0.0 mm 0.00 in0.0 mm 0.00 in0.0 mm
05:00 PM 21.6°F-5.8°C 14.9°F-9.5°C 75% 5.0 mph NW8.0 kmh NW -- 30.63 in1037.3 mb 0.00 in0.0 mm 0.00 in0.0 mm 0.00 in0.0 mm
05:05 PM 21.5°F-5.8°C 14.8°F-9.6°C 75% 2.0 mph WNW3.2 kmh WNW -- 30.63 in1037.3 mb 0.00 in0.0 mm 0.00 in0.0 mm 0.00 in0.0 mm
05:10 PM 21.3°F-5.9°C 14.9°F-9.5°C 76% 3.0 mph WNW4.8 kmh WNW 7.0 mph11.3 kmh 30.63 in1037.3 mb 0.00 in0.0 mm 0.00 in0.0 mm 0.00 in0.0 mm
05:15 PM 21.1°F-6.1°C 14.7°F-9.6°C 76% 4.0 mph WNW6.4 kmh WNW 7.0 mph11.3 kmh 30.64 in1037.6 mb 0.00 in0.0 mm 0.00 in0.0 mm 0.00 in0.0 mm
05:20 PM 20.9°F-6.2°C 14.5°F-9.7°C 76% 3.0 mph W4.8 kmh W -- 30.64 in1037.6 mb 0.00 in0.0 mm 0.00 in0.0 mm 0.00 in0.0 mm
05:25 PM 20.6°F-6.3°C 14.6°F-9.7°C 77% 3.0 mph W4.8 kmh W -- 30.64 in1037.6 mb 0.00 in0.0 mm 0.00 in0.0 mm 0.00 in0.0 mm
05:30 PM 20.4°F-6.4°C 14.4°F-9.8°C 77% Calm Calm -- 30.64 in1037.6 mb 0.00 in0.0 mm 0.00 in0.0 mm 0.00 in0.0 mm
05:35 PM 20.2°F-6.6°C 14.5°F-9.7°C 78% 1.0 mph W1.6 kmh W -- 30.64 in1037.6 mb 0.00 in0.0 mm 0.00 in0.0 mm 0.00 in0.0 mm
05:40 PM 20.0°F-6.7°C 14.3°F-9.8°C 78% Calm Calm -- 30.64 in1037.6 mb 0.00 in0.0 mm 0.00 in0.0 mm 0.00 in0.0 mm
05:45 PM 19.8°F-6.8°C 14.4°F-9.8°C 79% Calm Calm -- 30.64 in1037.6 mb 0.00 in0.0 mm 0.00 in0.0 mm 0.00 in0.0 mm
05:50 PM 19.6°F-6.9°C 14.2°F-9.9°C 79% Calm Calm -- 30.64 in1037.6 mb 0.00 in0.0 mm 0.00 in0.0 mm 0.00 in0.0 mm
05:55 PM 19.4°F-7.0°C 14.0°F-10.0°C 79% Calm Calm -- 30.64 in1037.6 mb 0.00 in0.0 mm 0.00 in0.0 mm 0.00 in0.0 mm
06:00 PM 19.1°F-7.2°C 13.7°F-10.2°C 79% Calm Calm -- 30.64 in1037.6 mb 0.00 in0.0 mm 0.00 in0.0 mm 0.00 in0.0 mm
06:05 PM 18.8°F-7.3°C 13.7°F-10.2°C 80% Calm Calm -- 30.64 in1037.6 mb 0.00 in0.0 mm 0.00 in0.0 mm 0.00 in0.0 mm
06:10 PM 18.6°F-7.4°C 13.5°F-10.3°C 80% Calm Calm -- 30.64 in1037.6 mb 0.00 in0.0 mm 0.00 in0.0 mm 0.00 in0.0 mm
06:15 PM 18.3°F-7.6°C 13.2°F-10.4°C 80% Calm Calm -- 30.64 in1037.6 mb 0.00 in0.0 mm 0.00 in0.0 mm 0.00 in0.0 mm
06:20 PM 18.0°F-7.8°C 13.2°F-10.4°C 81% Calm Calm -- 30.64 in1037.6 mb 0.00 in0.0 mm 0.00 in0.0 mm 0.00 in0.0 mm
06:25 PM 17.7°F-7.9°C 13.2°F-10.4°C 82% Calm Calm -- 30.64 in1037.6 mb 0.00 in0.0 mm 0.00 in0.0 mm 0.00 in0.0 mm
06:30 PM 17.6°F-8.0°C 13.1°F-10.5°C 82% Calm Calm -- 30.64 in1037.6 mb 0.00 in0.0 mm 0.00 in0.0 mm 0.00 in0.0 mm
06:35 PM 17.6°F-8.0°C 13.1°F-10.5°C 82% Calm Calm -- 30.64 in1037.6 mb 0.00 in0.0 mm 0.00 in0.0 mm 0.00 in0.0 mm
06:40 PM 17.5°F-8.1°C 13.2°F-10.4°C 83% Calm Calm -- 30.64 in1037.6 mb 0.00 in0.0 mm 0.00 in0.0 mm 0.00 in0.0 mm
06:45 PM 17.5°F-8.1°C 13.2°F-10.4°C 83% Calm Calm -- 30.64 in1037.6 mb 0.00 in0.0 mm 0.00 in0.0 mm 0.00 in0.0 mm
06:50 PM 17.5°F-8.1°C 13.5°F-10.3°C 84% Calm Calm -- 30.64 in1037.6 mb 0.00 in0.0 mm 0.00 in0.0 mm 0.00 in0.0 mm
06:55 PM 17.6°F-8.0°C 13.3°F-10.4°C 83% Calm Calm -- 30.64 in1037.6 mb 0.00 in0.0 mm 0.00 in0.0 mm 0.00 in0.0 mm
07:00 PM 17.6°F-8.0°C 13.6°F-10.2°C 84% Calm Calm -- 30.64 in1037.6 mb 0.00 in0.0 mm 0.00 in0.0 mm 0.00 in0.0 mm
07:05 PM 17.8°F-7.9°C 13.8°F-10.1°C 84% Calm Calm -- 30.64 in1037.6 mb 0.00 in0.0 mm 0.00 in0.0 mm 0.00 in0.0 mm
07:10 PM 18.0°F-7.8°C 16.1°F-8.8°C 92% 4.0 mph WSW6.4 kmh WSW -- 30.65 in1037.9 mb 0.00 in0.0 mm 0.00 in0.0 mm 0.00 in0.0 mm
07:15 PM 18.4°F-7.6°C 14.4°F-9.8°C 84% 1.0 mph W1.6 kmh W -- 30.65 in1037.9 mb 0.00 in0.0 mm 0.00 in0.0 mm 0.00 in0.0 mm
07:20 PM 18.6°F-7.4°C 14.6°F-9.7°C 84% 4.0 mph WSW6.4 kmh WSW -- 30.64 in1037.6 mb 0.00 in0.0 mm 0.00 in0.0 mm 0.00 in0.0 mm
07:25 PM 18.5°F-7.5°C 14.5°F-9.7°C 84% 4.0 mph W6.4 kmh W -- 30.64 in1037.6 mb 0.00 in0.0 mm 0.00 in0.0 mm 0.00 in0.0 mm
07:30 PM 18.3°F-7.6°C 14.0°F-10.0°C 83% 4.0 mph W6.4 kmh W -- 30.65 in1037.9 mb 0.00 in0.0 mm 0.00 in0.0 mm 0.00 in0.0 mm
07:35 PM 18.1°F-7.7°C 13.8°F-10.1°C 83% 2.0 mph W3.2 kmh W -- 30.65 in1037.9 mb 0.00 in0.0 mm 0.00 in0.0 mm 0.00 in0.0 mm
07:40 PM 17.7°F-7.9°C 13.4°F-10.3°C 83% 3.0 mph W4.8 kmh W 6.0 mph9.7 kmh 30.65 in1037.9 mb 0.00 in0.0 mm 0.00 in0.0 mm 0.00 in0.0 mm
07:45 PM 17.3°F-8.2°C 13.0°F-10.6°C 83% 3.0 mph W4.8 kmh W 6.0 mph9.7 kmh 30.65 in1037.9 mb 0.00 in0.0 mm 0.00 in0.0 mm 0.00 in0.0 mm
07:50 PM 17.1°F-8.3°C 12.8°F-10.7°C 83% 2.0 mph WNW3.2 kmh WNW -- 30.65 in1037.9 mb 0.00 in0.0 mm 0.00 in0.0 mm 0.00 in0.0 mm
07:55 PM 16.7°F-8.5°C 12.2°F-11.0°C 82% 4.0 mph WNW6.4 kmh WNW -- 30.65 in1037.9 mb 0.00 in0.0 mm 0.00 in0.0 mm 0.00 in0.0 mm
08:00 PM 16.2°F-8.8°C 11.7°F-11.3°C 82% 2.0 mph W3.2 kmh W -- 30.65 in1037.9 mb 0.00 in0.0 mm 0.00 in0.0 mm 0.00 in0.0 mm
08:05 PM 15.8°F-9.0°C 11.3°F-11.5°C 82% 3.0 mph WSW4.8 kmh WSW -- 30.65 in1037.9 mb 0.00 in0.0 mm 0.00 in0.0 mm 0.00 in0.0 mm
08:10 PM 15.5°F-9.2°C 11.3°F-11.5°C 83% Calm Calm -- 30.65 in1037.9 mb 0.00 in0.0 mm 0.00 in0.0 mm 0.00 in0.0 mm
08:15 PM 15.2°F-9.3°C 11.0°F-11.7°C 83% Calm Calm -- 30.65 in1037.9 mb 0.00 in0.0 mm 0.00 in0.0 mm 0.00 in0.0 mm
08:20 PM 15.0°F-9.4°C 10.8°F-11.8°C 83% Calm Calm -- 30.65 in1037.9 mb 0.00 in0.0 mm 0.00 in0.0 mm 0.00 in0.0 mm
08:25 PM 14.5°F-9.7°C 10.0°F-12.2°C 82% Calm Calm -- 30.65 in1037.9 mb 0.00 in0.0 mm 0.00 in0.0 mm 0.00 in0.0 mm
08:30 PM 14.2°F-9.9°C 10.0°F-12.2°C 83% Calm Calm -- 30.65 in1037.9 mb 0.00 in0.0 mm 0.00 in0.0 mm 0.00 in0.0 mm
08:35 PM 14.0°F-10.0°C 9.8°F-12.3°C 83% Calm Calm -- 30.65 in1037.9 mb 0.00 in0.0 mm 0.00 in0.0 mm 0.00 in0.0 mm
08:40 PM 13.9°F-10.1°C 9.7°F-12.4°C 83% 1.0 mph WSW1.6 kmh WSW -- 30.65 in1037.9 mb 0.00 in0.0 mm 0.00 in0.0 mm 0.00 in0.0 mm
08:45 PM 13.9°F-10.1°C 9.7°F-12.4°C 83% 2.0 mph WSW3.2 kmh WSW -- 30.65 in1037.9 mb 0.00 in0.0 mm 0.00 in0.0 mm 0.00 in0.0 mm
08:50 PM 14.0°F-10.0°C 10.1°F-12.2°C 84% 2.0 mph WSW3.2 kmh WSW -- 30.65 in1037.9 mb 0.00 in0.0 mm 0.00 in0.0 mm 0.00 in0.0 mm
08:55 PM 13.9°F-10.1°C 10.0°F-12.2°C 84% 2.0 mph WSW3.2 kmh WSW -- 30.65 in1037.9 mb 0.00 in0.0 mm 0.00 in0.0 mm 0.00 in0.0 mm
09:00 PM 13.8°F-10.1°C 9.9°F-12.3°C 84% Calm Calm -- 30.65 in1037.9 mb 0.00 in0.0 mm 0.00 in0.0 mm 0.00 in0.0 mm
09:05 PM 13.6°F-10.2°C 11.7°F-11.3°C 92% Calm Calm -- 30.65 in1037.9 mb 0.00 in0.0 mm 0.00 in0.0 mm 0.00 in0.0 mm
09:10 PM 13.5°F-10.3°C 9.3°F-12.6°C 83% Calm Calm -- 30.65 in1037.9 mb 0.00 in0.0 mm 0.00 in0.0 mm 0.00 in0.0 mm
09:15 PM 13.4°F-10.3°C 9.2°F-12.7°C 83% Calm Calm -- 30.65 in1037.9 mb 0.00 in0.0 mm 0.00 in0.0 mm 0.00 in0.0 mm
09:20 PM 13.1°F-10.5°C 9.2°F-12.7°C 84% Calm Calm -- 30.65 in1037.9 mb 0.00 in0.0 mm 0.00 in0.0 mm 0.00 in0.0 mm
09:25 PM 12.8°F-10.7°C 10.9°F-11.7°C 92% Calm Calm -- 30.65 in1037.9 mb 0.00 in0.0 mm 0.00 in0.0 mm 0.00 in0.0 mm
09:30 PM 12.6°F-10.8°C 8.4°F-13.1°C 83% Calm Calm -- 30.65 in1037.9 mb 0.00 in0.0 mm 0.00 in0.0 mm 0.00 in0.0 mm
09:35 PM 12.3°F-10.9°C 8.1°F-13.3°C 83% Calm Calm -- 30.65 in1037.9 mb 0.00 in0.0 mm 0.00 in0.0 mm 0.00 in0.0 mm
09:40 PM 12.0°F-11.1°C 7.8°F-13.4°C 83% Calm Calm -- 30.65 in1037.9 mb 0.00 in0.0 mm 0.00 in0.0 mm 0.00 in0.0 mm
09:45 PM 11.6°F-11.3°C 7.5°F-13.6°C 83% 2.0 mph WSW3.2 kmh WSW -- 30.65 in1037.9 mb 0.00 in0.0 mm 0.00 in0.0 mm 0.00 in0.0 mm
09:50 PM 11.1°F-11.6°C 7.2°F-13.8°C 84% Calm Calm -- 30.65 in1037.9 mb 0.00 in0.0 mm 0.00 in0.0 mm 0.00 in0.0 mm
09:55 PM 10.7°F-11.8°C 6.8°F-14.0°C 84% Calm Calm -- 30.65 in1037.9 mb 0.00 in0.0 mm 0.00 in0.0 mm 0.00 in0.0 mm
10:00 PM 10.4°F-12.0°C 6.5°F-14.2°C 84% Calm Calm -- 30.65 in1037.9 mb 0.00 in0.0 mm 0.00 in0.0 mm 0.00 in0.0 mm
10:05 PM 10.0°F-12.2°C 6.1°F-14.4°C 84% 1.0 mph WSW1.6 kmh WSW -- 30.65 in1037.9 mb 0.00 in0.0 mm 0.00 in0.0 mm 0.00 in0.0 mm
10:10 PM 9.6°F-12.4°C 6.0°F-14.4°C 85% Calm Calm 3.0 mph4.8 kmh 30.65 in1037.9 mb 0.00 in0.0 mm 0.00 in0.0 mm 0.00 in0.0 mm
10:15 PM 9.4°F-12.6°C 5.8°F-14.6°C 85% Calm Calm 3.0 mph4.8 kmh 30.65 in1037.9 mb 0.00 in0.0 mm 0.00 in0.0 mm 0.00 in0.0 mm
10:20 PM 9.1°F-12.7°C 5.5°F-14.7°C 85% Calm Calm -- 30.65 in1037.9 mb 0.00 in0.0 mm 0.00 in0.0 mm 0.00 in0.0 mm
10:25 PM 9.0°F-12.8°C 5.4°F-14.8°C 85% Calm Calm -- 30.65 in1037.9 mb 0.00 in0.0 mm 0.00 in0.0 mm 0.00 in0.0 mm
10:30 PM 8.8°F-12.9°C 5.2°F-14.9°C 85% Calm Calm -- 30.65 in1037.9 mb 0.00 in0.0 mm 0.00 in0.0 mm 0.00 in0.0 mm
10:35 PM 8.4°F-13.1°C 4.8°F-15.1°C 85% 2.0 mph WSW3.2 kmh WSW -- 30.65 in1037.9 mb 0.00 in0.0 mm 0.00 in0.0 mm 0.00 in0.0 mm
10:40 PM 8.2°F-13.2°C 4.6°F-15.2°C 85% Calm Calm -- 30.65 in1037.9 mb 0.00 in0.0 mm 0.00 in0.0 mm 0.00 in0.0 mm
10:45 PM 7.8°F-13.4°C 4.5°F-15.3°C 86% 2.0 mph WSW3.2 kmh WSW -- 30.65 in1037.9 mb 0.00 in0.0 mm 0.00 in0.0 mm 0.00 in0.0 mm
10:50 PM 7.6°F-13.6°C 4.3°F-15.4°C 86% 2.0 mph WSW3.2 kmh WSW -- 30.65 in1037.9 mb 0.00 in0.0 mm 0.00 in0.0 mm 0.00 in0.0 mm
10:55 PM 7.3°F-13.7°C 4.0°F-15.6°C 86% Calm Calm -- 30.65 in1037.9 mb 0.00 in0.0 mm 0.00 in0.0 mm 0.00 in0.0 mm
11:00 PM 7.0°F-13.9°C 3.7°F-15.7°C 86% 3.0 mph WSW4.8 kmh WSW 3.0 mph4.8 kmh 30.65 in1037.9 mb 0.00 in0.0 mm 0.00 in0.0 mm 0.00 in0.0 mm
11:05 PM 6.9°F-13.9°C 3.6°F-15.8°C 86% 2.0 mph WSW3.2 kmh WSW 3.0 mph4.8 kmh 30.65 in1037.9 mb 0.00 in0.0 mm 0.00 in0.0 mm 0.00 in0.0 mm
11:10 PM 6.6°F-14.1°C 3.3°F-15.9°C 86% Calm Calm -- 30.65 in1037.9 mb 0.00 in0.0 mm 0.00 in0.0 mm 0.00 in0.0 mm
11:15 PM 6.4°F-14.2°C 3.1°F-16.1°C 86% 2.0 mph WSW3.2 kmh WSW -- 30.64 in1037.6 mb 0.00 in0.0 mm 0.00 in0.0 mm 0.00 in0.0 mm
11:20 PM 6.2°F-14.3°C 2.9°F-16.2°C 86% 1.0 mph WSW1.6 kmh WSW -- 30.65 in1037.9 mb 0.00 in0.0 mm 0.00 in0.0 mm 0.00 in0.0 mm
11:25 PM 6.2°F-14.3°C 3.2°F-16.0°C 87% 1.0 mph WSW1.6 kmh WSW -- 30.64 in1037.6 mb 0.00 in0.0 mm 0.00 in0.0 mm 0.00 in0.0 mm
11:30 PM 6.1°F-14.4°C 3.1°F-16.1°C 87% 2.0 mph WSW3.2 kmh WSW -- 30.64 in1037.6 mb 0.00 in0.0 mm 0.00 in0.0 mm 0.00 in0.0 mm
11:35 PM 6.0°F-14.4°C 3.0°F-16.1°C 87% 1.0 mph WSW1.6 kmh WSW -- 30.64 in1037.6 mb 0.00 in0.0 mm 0.00 in0.0 mm 0.00 in0.0 mm
11:40 PM 6.1°F-14.4°C 3.1°F-16.1°C 87% 2.0 mph WSW3.2 kmh WSW -- 30.64 in1037.6 mb 0.00 in0.0 mm 0.00 in0.0 mm 0.00 in0.0 mm
11:45 PM 6.1°F-14.4°C 3.1°F-16.1°C 87% 1.0 mph WSW1.6 kmh WSW -- 30.64 in1037.6 mb 0.00 in0.0 mm 0.00 in0.0 mm 0.00 in0.0 mm
11:50 PM 6.0°F-14.4°C 3.0°F-16.1°C 87% 1.0 mph WSW1.6 kmh WSW 2.0 mph3.2 kmh 30.64 in1037.6 mb 0.00 in0.0 mm 0.00 in0.0 mm 0.00 in0.0 mm
11:55 PM 5.9°F-14.5°C 2.9°F-16.2°C 87% 2.0 mph WSW3.2 kmh WSW 2.0 mph3.2 kmh 30.64 in1037.6 mb 0.00 in0.0 mm 0.00 in0.0 mm 0.00 in0.0 mm